sensor_id;sensor_type;location;lat;lon;timestamp;pressure;altitude;pressure_sealevel;temperature;humidity
50282;BME280;36176;51.506;10.272;2023-08-24T00:01:22;99805.94;;;15.57;93.16
50282;BME280;36176;51.506;10.272;2023-08-24T00:03:49;99799.84;;;15.55;92.88
50282;BME280;36176;51.506;10.272;2023-08-24T00:06:16;99811.50;;;15.54;92.32
50282;BME280;36176;51.506;10.272;2023-08-24T00:08:43;99812.34;;;15.55;92.43
50282;BME280;36176;51.506;10.272;2023-08-24T00:11:10;99816.91;;;15.52;92.63
50282;BME280;36176;51.506;10.272;2023-08-24T00:13:38;99827.97;;;15.46;92.31
50282;BME280;36176;51.506;10.272;2023-08-24T00:16:04;99819.22;;;15.44;92.27
50282;BME280;36176;51.506;10.272;2023-08-24T00:18:32;99812.91;;;15.45;92.63
50282;BME280;36176;51.506;10.272;2023-08-24T00:20:59;99820.91;;;15.45;93.50
50282;BME280;36176;51.506;10.272;2023-08-24T00:23:26;99813.00;;;15.44;93.51
50282;BME280;36176;51.506;10.272;2023-08-24T00:25:54;99812.13;;;15.43;92.87
50282;BME280;36176;51.506;10.272;2023-08-24T00:28:21;99820.44;;;15.39;93.12
50282;BME280;36176;51.506;10.272;2023-08-24T00:30:48;99810.88;;;15.35;93.73
50282;BME280;36176;51.506;10.272;2023-08-24T00:33:15;99806.50;;;15.34;93.35
50282;BME280;36176;51.506;10.272;2023-08-24T00:35:42;99798.97;;;15.26;93.37
50282;BME280;36176;51.506;10.272;2023-08-24T00:38:09;99797.72;;;15.17;94.25
50282;BME280;36176;51.506;10.272;2023-08-24T00:40:36;99794.47;;;15.12;94.81
50282;BME280;36176;51.506;10.272;2023-08-24T00:43:03;99794.66;;;15.09;95.03
50282;BME280;36176;51.506;10.272;2023-08-24T00:45:30;99798.47;;;15.05;94.79
50282;BME280;36176;51.506;10.272;2023-08-24T00:47:59;99799.59;;;15.01;94.87
50282;BME280;36176;51.506;10.272;2023-08-24T00:50:26;99795.31;;;14.98;94.98
50282;BME280;36176;51.506;10.272;2023-08-24T00:52:53;99793.47;;;14.99;95.57
50282;BME280;36176;51.506;10.272;2023-08-24T00:55:21;99798.16;;;14.95;95.30
50282;BME280;36176;51.506;10.272;2023-08-24T00:57:48;99795.78;;;14.91;95.66
50282;BME280;36176;51.506;10.272;2023-08-24T01:00:17;99795.19;;;14.85;95.98
50282;BME280;36176;51.506;10.272;2023-08-24T01:02:44;99793.84;;;14.78;96.40
50282;BME280;36176;51.506;10.272;2023-08-24T01:05:11;99788.50;;;14.78;96.34
50282;BME280;36176;51.506;10.272;2023-08-24T01:07:39;99785.06;;;14.76;96.05
50282;BME280;36176;51.506;10.272;2023-08-24T01:10:08;99786.78;;;14.77;95.80
50282;BME280;36176;51.506;10.272;2023-08-24T01:12:47;99785.91;;;14.77;96.04
50282;BME280;36176;51.506;10.272;2023-08-24T01:15:26;99785.06;;;14.76;96.09
50282;BME280;36176;51.506;10.272;2023-08-24T01:18:06;99784.28;;;14.74;96.67
50282;BME280;36176;51.506;10.272;2023-08-24T01:20:35;99782.47;;;14.75;95.97
50282;BME280;36176;51.506;10.272;2023-08-24T01:23:17;99794.03;;;14.75;96.18
50282;BME280;36176;51.506;10.272;2023-08-24T01:26:13;99781.53;;;14.76;95.91
50282;BME280;36176;51.506;10.272;2023-08-24T01:28:43;99784.56;;;14.70;96.19
50282;BME280;36176;51.506;10.272;2023-08-24T01:31:10;99788.28;;;14.67;95.81
50282;BME280;36176;51.506;10.272;2023-08-24T01:33:39;99782.09;;;14.66;96.48
50282;BME280;36176;51.506;10.272;2023-08-24T01:36:08;99779.34;;;14.68;96.02
50282;BME280;36176;51.506;10.272;2023-08-24T01:38:35;99779.22;;;14.70;95.52
50282;BME280;36176;51.506;10.272;2023-08-24T01:43:39;99774.09;;;14.66;95.16
50282;BME280;36176;51.506;10.272;2023-08-24T01:46:14;99770.91;;;14.60;95.64
50282;BME280;36176;51.506;10.272;2023-08-24T01:48:43;99772.06;;;14.56;96.05
50282;BME280;36176;51.506;10.272;2023-08-24T01:51:12;99772.06;;;14.56;96.60
50282;BME280;36176;51.506;10.272;2023-08-24T01:53:40;99776.63;;;14.54;96.87
50282;BME280;36176;51.506;10.272;2023-08-24T01:56:12;99774.00;;;14.52;97.18
50282;BME280;36176;51.506;10.272;2023-08-24T01:58:40;99775.13;;;14.48;97.16
50282;BME280;36176;51.506;10.272;2023-08-24T02:01:08;99779.03;;;14.42;97.24
50282;BME280;36176;51.506;10.272;2023-08-24T02:03:35;99768.53;;;14.39;97.29
50282;BME280;36176;51.506;10.272;2023-08-24T02:06:03;99777.47;;;14.38;97.02
50282;BME280;36176;51.506;10.272;2023-08-24T02:08:30;99770.44;;;14.37;96.82
50282;BME280;36176;51.506;10.272;2023-08-24T02:10:57;99772.25;;;14.37;96.84
50282;BME280;36176;51.506;10.272;2023-08-24T02:13:25;99764.25;;;14.37;96.88
50282;BME280;36176;51.506;10.272;2023-08-24T02:16:07;99754.53;;;14.36;96.61
50282;BME280;36176;51.506;10.272;2023-08-24T02:18:34;99754.78;;;14.31;96.60
50282;BME280;36176;51.506;10.272;2023-08-24T02:21:07;99755.06;;;14.26;96.87
50282;BME280;36176;51.506;10.272;2023-08-24T02:23:34;99757.06;;;14.23;96.94
50282;BME280;36176;51.506;10.272;2023-08-24T02:26:01;99752.56;;;14.23;97.11
50282;BME280;36176;51.506;10.272;2023-08-24T02:28:28;99749.06;;;14.23;97.41
50282;BME280;36176;51.506;10.272;2023-08-24T02:31:00;99748.19;;;14.22;97.64
50282;BME280;36176;51.506;10.272;2023-08-24T02:33:27;99742.16;;;14.19;97.38
50282;BME280;36176;51.506;10.272;2023-08-24T02:35:55;99747.50;;;14.19;97.15
50282;BME280;36176;51.506;10.272;2023-08-24T02:38:23;99742.44;;;14.14;97.28
50282;BME280;36176;51.506;10.272;2023-08-24T02:41:06;99744.06;;;14.17;97.75
50282;BME280;36176;51.506;10.272;2023-08-24T02:43:36;99734.44;;;14.14;97.19
50282;BME280;36176;51.506;10.272;2023-08-24T02:46:06;99737.97;;;14.15;97.39
50282;BME280;36176;51.506;10.272;2023-08-24T02:48:34;99736.25;;;14.14;97.48
50282;BME280;36176;51.506;10.272;2023-08-24T02:51:03;99741.66;;;14.12;97.20
50282;BME280;36176;51.506;10.272;2023-08-24T02:53:31;99741.66;;;14.12;97.46
50282;BME280;36176;51.506;10.272;2023-08-24T02:56:01;99741.78;;;14.11;97.60
50282;BME280;36176;51.506;10.272;2023-08-24T02:58:28;99735.75;;;14.07;97.15
50282;BME280;36176;51.506;10.272;2023-08-24T03:00:56;99735.84;;;14.06;97.05
50282;BME280;36176;51.506;10.272;2023-08-24T03:03:23;99740.41;;;14.03;97.36
50282;BME280;36176;51.506;10.272;2023-08-24T03:05:58;99736.97;;;14.01;97.32
50282;BME280;36176;51.506;10.272;2023-08-24T03:08:28;99736.25;;;13.98;96.71
50282;BME280;36176;51.506;10.272;2023-08-24T03:10:56;99737.16;;;13.98;97.26
50282;BME280;36176;51.506;10.272;2023-08-24T03:13:23;99734.63;;;13.95;96.66
50282;BME280;36176;51.506;10.272;2023-08-24T03:15:50;99732.84;;;13.96;96.98
50282;BME280;36176;51.506;10.272;2023-08-24T03:18:18;99729.50;;;13.92;97.30
50282;BME280;36176;51.506;10.272;2023-08-24T03:20:46;99722.72;;;13.87;97.67
50282;BME280;36176;51.506;10.272;2023-08-24T03:23:14;99727.16;;;13.86;98.01
50282;BME280;36176;51.506;10.272;2023-08-24T03:25:42;99728.97;;;13.86;98.26
50282;BME280;36176;51.506;10.272;2023-08-24T03:28:09;99730.72;;;13.87;97.90
50282;BME280;36176;51.506;10.272;2023-08-24T03:30:38;99729.16;;;13.82;97.84
50282;BME280;36176;51.506;10.272;2023-08-24T03:33:06;99730.00;;;13.83;97.86
50282;BME280;36176;51.506;10.272;2023-08-24T03:35:33;99731.03;;;13.80;97.53
50282;BME280;36176;51.506;10.272;2023-08-24T03:38:01;99734.66;;;13.79;97.44
50282;BME280;36176;51.506;10.272;2023-08-24T03:40:28;99729.50;;;13.76;97.30
50282;BME280;36176;51.506;10.272;2023-08-24T03:42:55;99730.53;;;13.74;97.38
50282;BME280;36176;51.506;10.272;2023-08-24T03:45:22;99727.06;;;13.72;97.24
50282;BME280;36176;51.506;10.272;2023-08-24T03:47:50;99737.72;;;13.72;97.18
50282;BME280;36176;51.506;10.272;2023-08-24T03:50:17;99738.88;;;13.68;97.21
50282;BME280;36176;51.506;10.272;2023-08-24T03:52:45;99739.78;;;13.67;97.51
50282;BME280;36176;51.506;10.272;2023-08-24T03:55:12;99737.13;;;13.67;97.58
50282;BME280;36176;51.506;10.272;2023-08-24T03:57:39;99725.56;;;13.68;97.83
50282;BME280;36176;51.506;10.272;2023-08-24T04:00:07;99726.41;;;13.68;98.26
50282;BME280;36176;51.506;10.272;2023-08-24T04:02:34;99731.66;;;13.70;98.54
50282;BME280;36176;51.506;10.272;2023-08-24T04:05:01;99736.03;;;13.71;98.63
50282;BME280;36176;51.506;10.272;2023-08-24T04:07:28;99733.44;;;13.69;98.06
50282;BME280;36176;51.506;10.272;2023-08-24T04:09:55;99744.09;;;13.69;98.45
50282;BME280;36176;51.506;10.272;2023-08-24T04:12:23;99746.94;;;13.66;98.62
50282;BME280;36176;51.506;10.272;2023-08-24T04:14:50;99747.78;;;13.67;98.75
50282;BME280;36176;51.506;10.272;2023-08-24T04:17:17;99745.13;;;13.67;99.17
50282;BME280;36176;51.506;10.272;2023-08-24T04:19:44;99758.53;;;13.65;98.58
50282;BME280;36176;51.506;10.272;2023-08-24T04:22:11;99748.91;;;13.63;98.64
50282;BME280;36176;51.506;10.272;2023-08-24T04:24:38;99746.34;;;13.61;98.31
50282;BME280;36176;51.506;10.272;2023-08-24T04:27:05;99750.19;;;13.55;97.81
50282;BME280;36176;51.506;10.272;2023-08-24T04:29:32;99755.66;;;13.52;98.15
50282;BME280;36176;51.506;10.272;2023-08-24T04:31:59;99760.06;;;13.53;97.89
50282;BME280;36176;51.506;10.272;2023-08-24T04:34:26;99760.06;;;13.53;98.06
50282;BME280;36176;51.506;10.272;2023-08-24T04:36:53;99760.75;;;13.57;98.11
50282;BME280;36176;51.506;10.272;2023-08-24T04:39:21;99750.81;;;13.60;98.27
50282;BME280;36176;51.506;10.272;2023-08-24T04:41:48;99751.84;;;13.58;98.91
50282;BME280;36176;51.506;10.272;2023-08-24T04:44:15;99756.28;;;13.57;98.91
50282;BME280;36176;51.506;10.272;2023-08-24T04:46:42;99753.47;;;13.60;99.75
50282;BME280;36176;51.506;10.272;2023-08-24T04:49:09;99756.13;;;13.60;99.61
50282;BME280;36176;51.506;10.272;2023-08-24T04:51:36;99757.56;;;13.50;100.00
50282;BME280;36176;51.506;10.272;2023-08-24T04:54:03;99758.09;;;13.41;100.00
50282;BME280;36176;51.506;10.272;2023-08-24T04:56:31;99751.81;;;13.42;100.00
50282;BME280;36176;51.506;10.272;2023-08-24T04:58:58;99752.66;;;13.43;100.00
50282;BME280;36176;51.506;10.272;2023-08-24T05:01:25;99740.47;;;13.54;100.00
50282;BME280;36176;51.506;10.272;2023-08-24T05:03:53;99731.31;;;13.76;100.00
50282;BME280;36176;51.506;10.272;2023-08-24T05:06:21;99729.50;;;13.92;100.00
50282;BME280;36176;51.506;10.272;2023-08-24T05:08:48;99727.84;;;14.06;100.00
50282;BME280;36176;51.506;10.272;2023-08-24T05:11:20;99727.22;;;14.16;100.00
50282;BME280;36176;51.506;10.272;2023-08-24T05:13:47;99724.03;;;14.25;100.00
50282;BME280;36176;51.506;10.272;2023-08-24T05:16:14;99726.56;;;14.43;100.00
50282;BME280;36176;51.506;10.272;2023-08-24T05:18:41;99725.34;;;14.79;100.00
50282;BME280;36176;51.506;10.272;2023-08-24T05:21:09;99740.81;;;15.31;100.00
50282;BME280;36176;51.506;10.272;2023-08-24T05:23:36;99740.59;;;15.77;98.73
50282;BME280;36176;51.506;10.272;2023-08-24T05:26:03;99718.91;;;16.36;96.65
50282;BME280;36176;51.506;10.272;2023-08-24T05:28:31;99718.25;;;16.85;93.70
50282;BME280;36176;51.506;10.272;2023-08-24T05:31:20;99712.56;;;17.28;90.42
50282;BME280;36176;51.506;10.272;2023-08-24T05:34:02;99712.56;;;17.78;89.09
50282;BME280;36176;51.506;10.272;2023-08-24T05:36:32;99712.91;;;18.34;86.76
50282;BME280;36176;51.506;10.272;2023-08-24T05:39:02;99722.97;;;18.90;83.62
50282;BME280;36176;51.506;10.272;2023-08-24T05:41:33;99725.94;;;19.43;81.95
50282;BME280;36176;51.506;10.272;2023-08-24T05:44:04;99726.28;;;19.84;79.55
50282;BME280;36176;51.506;10.272;2023-08-24T05:46:31;99742.34;;;20.17;78.93
50282;BME280;36176;51.506;10.272;2023-08-24T05:49:01;99752.25;;;20.49;78.31
50282;BME280;36176;51.506;10.272;2023-08-24T05:51:28;99756.84;;;20.91;75.32
50282;BME280;36176;51.506;10.272;2023-08-24T05:53:55;99756.34;;;21.28;74.55
50282;BME280;36176;51.506;10.272;2023-08-24T05:56:22;99750.19;;;21.67;71.60
50282;BME280;36176;51.506;10.272;2023-08-24T05:58:50;99752.81;;;21.88;71.53
50282;BME280;36176;51.506;10.272;2023-08-24T06:01:17;99753.63;;;22.29;69.95
50282;BME280;36176;51.506;10.272;2023-08-24T06:03:44;99755.19;;;22.71;68.49
50282;BME280;36176;51.506;10.272;2023-08-24T06:06:12;99747.19;;;23.08;66.54
50282;BME280;36176;51.506;10.272;2023-08-24T06:08:39;99744.94;;;23.41;65.80
50282;BME280;36176;51.506;10.272;2023-08-24T06:11:06;99748.38;;;23.81;64.01
50282;BME280;36176;51.506;10.272;2023-08-24T06:13:33;99741.34;;;24.33;62.32
50282;BME280;36176;51.506;10.272;2023-08-24T06:16:00;99751.56;;;25.01;61.26
50282;BME280;36176;51.506;10.272;2023-08-24T06:18:28;99753.66;;;25.60;59.21
50282;BME280;36176;51.506;10.272;2023-08-24T06:20:55;99747.31;;;25.85;57.25
50282;BME280;36176;51.506;10.272;2023-08-24T06:23:59;99751.00;;;26.10;56.56
50282;BME280;36176;51.506;10.272;2023-08-24T06:26:30;99752.00;;;26.09;53.79
50282;BME280;36176;51.506;10.272;2023-08-24T06:29:00;99752.63;;;25.53;54.73
50282;BME280;36176;51.506;10.272;2023-08-24T06:31:28;99742.28;;;24.60;56.38
50282;BME280;36176;51.506;10.272;2023-08-24T06:33:55;99738.59;;;23.97;57.83
50282;BME280;36176;51.506;10.272;2023-08-24T06:36:22;99744.47;;;23.55;58.98
50282;BME280;36176;51.506;10.272;2023-08-24T06:38:49;99737.81;;;23.03;61.08
50282;BME280;36176;51.506;10.272;2023-08-24T06:41:16;99727.88;;;22.64;61.94
50282;BME280;36176;51.506;10.272;2023-08-24T06:43:44;99730.03;;;22.32;64.32
50282;BME280;36176;51.506;10.272;2023-08-24T06:46:11;99726.53;;;22.00;66.21
50282;BME280;36176;51.506;10.272;2023-08-24T06:48:38;99723.13;;;21.79;68.21
50282;BME280;36176;51.506;10.272;2023-08-24T06:51:05;99724.88;;;21.59;68.45
50282;BME280;36176;51.506;10.272;2023-08-24T06:53:32;99721.03;;;21.52;69.26
50282;BME280;36176;51.506;10.272;2023-08-24T06:55:59;99721.72;;;21.44;69.82
50282;BME280;36176;51.506;10.272;2023-08-24T06:58:29;99717.66;;;21.29;70.77
50282;BME280;36176;51.506;10.272;2023-08-24T07:00:57;99716.22;;;21.24;72.36
50282;BME280;36176;51.506;10.272;2023-08-24T07:03:24;99707.53;;;21.21;72.92
50282;BME280;36176;51.506;10.272;2023-08-24T07:05:52;99714.75;;;21.20;73.03
50282;BME280;36176;51.506;10.272;2023-08-24T07:08:37;99708.25;;;21.23;73.90
50282;BME280;36176;51.506;10.272;2023-08-24T07:11:05;99714.03;;;21.18;72.96
50282;BME280;36176;51.506;10.272;2023-08-24T07:13:34;99709.09;;;21.23;73.60
50282;BME280;36176;51.506;10.272;2023-08-24T07:16:02;99724.47;;;21.33;74.89
50282;BME280;36176;51.506;10.272;2023-08-24T07:18:29;99716.03;;;21.47;74.04
50282;BME280;36176;51.506;10.272;2023-08-24T07:20:56;99708.28;;;21.63;73.23
50282;BME280;36176;51.506;10.272;2023-08-24T07:23:23;99702.09;;;21.82;73.01
50282;BME280;36176;51.506;10.272;2023-08-24T07:26:09;99704.28;;;21.98;73.16
50282;BME280;36176;51.506;10.272;2023-08-24T07:28:37;99710.22;;;22.12;71.58
50282;BME280;36176;51.506;10.272;2023-08-24T07:31:11;99703.16;;;22.11;71.70
50282;BME280;36176;51.506;10.272;2023-08-24T07:33:39;99702.44;;;22.08;71.79
50282;BME280;36176;51.506;10.272;2023-08-24T07:36:08;99699.56;;;22.00;71.66
50282;BME280;36176;51.506;10.272;2023-08-24T07:38:35;99696.59;;;21.84;71.86
50282;BME280;36176;51.506;10.272;2023-08-24T07:41:02;99691.41;;;21.71;71.50
50282;BME280;36176;51.506;10.272;2023-08-24T07:43:29;99691.28;;;21.63;72.09
50282;BME280;36176;51.506;10.272;2023-08-24T07:45:56;99692.94;;;21.54;73.15
50282;BME280;36176;51.506;10.272;2023-08-24T07:48:24;99690.38;;;21.43;73.53
50282;BME280;36176;51.506;10.272;2023-08-24T07:50:51;99687.72;;;21.32;74.04
50282;BME280;36176;51.506;10.272;2023-08-24T07:53:18;99690.22;;;21.23;73.93
50282;BME280;36176;51.506;10.272;2023-08-24T07:55:46;99681.72;;;21.18;73.49
50282;BME280;36176;51.506;10.272;2023-08-24T07:58:13;99675.75;;;21.15;73.75
50282;BME280;36176;51.506;10.272;2023-08-24T08:00:40;99679.81;;;21.09;74.68
50282;BME280;36176;51.506;10.272;2023-08-24T08:03:07;99682.25;;;21.12;74.05
50282;BME280;36176;51.506;10.272;2023-08-24T08:05:35;99677.84;;;21.11;74.54
50282;BME280;36176;51.506;10.272;2023-08-24T08:08:02;99671.50;;;21.12;74.54
50282;BME280;36176;51.506;10.272;2023-08-24T08:10:29;99674.91;;;21.14;75.48
50282;BME280;36176;51.506;10.272;2023-08-24T08:12:59;99668.50;;;21.15;77.13
50282;BME280;36176;51.506;10.272;2023-08-24T08:15:32;99653.78;;;21.19;76.95
50282;BME280;36176;51.506;10.272;2023-08-24T08:17:59;99650.81;;;21.22;76.63
50282;BME280;36176;51.506;10.272;2023-08-24T08:20:32;99648.69;;;21.26;76.58
50282;BME280;36176;51.506;10.272;2023-08-24T08:22:59;99656.22;;;21.22;76.58
50282;BME280;36176;51.506;10.272;2023-08-24T08:25:27;99638.34;;;21.21;77.37
50282;BME280;36176;51.506;10.272;2023-08-24T08:27:54;99637.91;;;21.26;79.09
50282;BME280;36176;51.506;10.272;2023-08-24T08:30:21;99622.03;;;21.23;79.55
50282;BME280;36176;51.506;10.272;2023-08-24T08:32:48;99618.38;;;21.34;79.70
50282;BME280;36176;51.506;10.272;2023-08-24T08:35:15;99611.75;;;21.48;79.46
50282;BME280;36176;51.506;10.272;2023-08-24T08:37:43;99594.63;;;21.68;80.12
50282;BME280;36176;51.506;10.272;2023-08-24T08:40:10;99599.75;;;21.91;79.05
50282;BME280;36176;51.506;10.272;2023-08-24T08:42:44;99591.81;;;22.08;78.90
50282;BME280;36176;51.506;10.272;2023-08-24T08:45:12;99580.41;;;22.15;76.72
50282;BME280;36176;51.506;10.272;2023-08-24T08:47:46;99576.75;;;22.16;77.12
50282;BME280;36176;51.506;10.272;2023-08-24T08:50:13;99575.91;;;22.25;77.08
50282;BME280;36176;51.506;10.272;2023-08-24T08:52:41;99574.00;;;22.45;77.48
50282;BME280;36176;51.506;10.272;2023-08-24T08:55:08;99574.81;;;22.65;76.32
50282;BME280;36176;51.506;10.272;2023-08-24T08:57:36;99564.41;;;22.80;76.31
50282;BME280;36176;51.506;10.272;2023-08-24T09:00:05;99563.78;;;22.86;75.79
50282;BME280;36176;51.506;10.272;2023-08-24T09:02:32;99567.28;;;22.96;75.87
50282;BME280;36176;51.506;10.272;2023-08-24T09:05:00;99565.69;;;23.13;75.61
50282;BME280;36176;51.506;10.272;2023-08-24T09:07:46;99564.56;;;23.33;75.45
50282;BME280;36176;51.506;10.272;2023-08-24T09:10:23;99580.81;;;23.51;75.64
50282;BME280;36176;51.506;10.272;2023-08-24T09:12:50;99565.44;;;23.70;74.47
50282;BME280;36176;51.506;10.272;2023-08-24T09:15:24;99563.84;;;23.95;73.98
50282;BME280;36176;51.506;10.272;2023-08-24T09:17:51;99552.69;;;24.16;72.89
50282;BME280;36176;51.506;10.272;2023-08-24T09:20:19;99565.09;;;24.45;72.45
50282;BME280;36176;51.506;10.272;2023-08-24T09:23:21;99563.50;;;24.60;68.63
50282;BME280;36176;51.506;10.272;2023-08-24T09:25:49;99559.66;;;24.71;69.83
50282;BME280;36176;51.506;10.272;2023-08-24T09:28:27;99562.94;;;24.82;69.74
50282;BME280;36176;51.506;10.272;2023-08-24T09:30:54;99550.63;;;24.96;68.64
50282;BME280;36176;51.506;10.272;2023-08-24T09:33:22;99552.56;;;25.12;67.48
50282;BME280;36176;51.506;10.272;2023-08-24T09:35:53;99552.47;;;25.30;66.50
50282;BME280;36176;51.506;10.272;2023-08-24T09:38:22;99551.88;;;25.53;66.30
50282;BME280;36176;51.506;10.272;2023-08-24T09:40:51;99556.28;;;25.62;62.78
50282;BME280;36176;51.506;10.272;2023-08-24T09:43:50;99556.44;;;25.52;60.37
50282;BME280;36176;51.506;10.272;2023-08-24T09:46:24;99554.94;;;25.58;62.23
50282;BME280;36176;51.506;10.272;2023-08-24T09:48:55;99553.09;;;25.75;61.15
50282;BME280;36176;51.506;10.272;2023-08-24T09:51:22;99556.00;;;25.89;61.33
50282;BME280;36176;51.506;10.272;2023-08-24T09:53:50;99560.06;;;26.26;61.10
50282;BME280;36176;51.506;10.272;2023-08-24T09:56:18;99559.78;;;26.85;60.50
50282;BME280;36176;51.506;10.272;2023-08-24T09:59:21;99550.03;;;27.47;58.33
50282;BME280;36176;51.506;10.272;2023-08-24T10:01:55;99553.50;;;27.64;55.86
50282;BME280;36176;51.506;10.272;2023-08-24T10:04:24;99542.97;;;27.84;55.33
50282;BME280;36176;51.506;10.272;2023-08-24T10:07:07;99538.88;;;27.88;56.34
50282;BME280;36176;51.506;10.272;2023-08-24T10:09:58;99525.53;;;28.16;54.12
50282;BME280;36176;51.506;10.272;2023-08-24T10:12:28;99527.69;;;28.73;54.28
50282;BME280;36176;51.506;10.272;2023-08-24T10:15:01;99515.84;;;29.32;51.18
50282;BME280;36176;51.506;10.272;2023-08-24T10:17:36;99520.16;;;29.41;49.75
50282;BME280;36176;51.506;10.272;2023-08-24T10:20:10;99509.25;;;29.63;52.29
50282;BME280;36176;51.506;10.272;2023-08-24T10:22:50;99514.75;;;30.34;50.50
50282;BME280;36176;51.506;10.272;2023-08-24T10:25:18;99496.13;;;30.86;50.64
50282;BME280;36176;51.506;10.272;2023-08-24T10:27:45;99498.78;;;31.14;49.72
50282;BME280;36176;51.506;10.272;2023-08-24T10:30:12;99494.53;;;31.05;45.83
50282;BME280;36176;51.506;10.272;2023-08-24T10:32:43;99495.19;;;30.65;44.68
50282;BME280;36176;51.506;10.272;2023-08-24T10:35:11;99485.50;;;30.06;45.47
50282;BME280;36176;51.506;10.272;2023-08-24T10:37:44;99481.78;;;29.86;48.27
50282;BME280;36176;51.506;10.272;2023-08-24T10:40:31;99482.09;;;30.26;47.61
50282;BME280;36176;51.506;10.272;2023-08-24T10:42:58;99464.28;;;30.71;45.57
50282;BME280;36176;51.506;10.272;2023-08-24T10:45:55;99456.63;;;30.95;44.28
50282;BME280;36176;51.506;10.272;2023-08-24T10:48:23;99459.25;;;31.23;44.01
50282;BME280;36176;51.506;10.272;2023-08-24T10:53:41;99449.16;;;31.37;43.29
50282;BME280;36176;51.506;10.272;2023-08-24T10:56:15;99453.63;;;31.45;43.45
50282;BME280;36176;51.506;10.272;2023-08-24T10:58:44;99458.28;;;31.64;44.51
50282;BME280;36176;51.506;10.272;2023-08-24T11:01:18;99459.75;;;31.93;43.00
50282;BME280;36176;51.506;10.272;2023-08-24T11:03:56;99455.97;;;31.88;39.70
50282;BME280;36176;51.506;10.272;2023-08-24T11:06:25;99457.00;;;31.47;44.22
50282;BME280;36176;51.506;10.272;2023-08-24T11:09:09;99456.81;;;31.62;44.35
50282;BME280;36176;51.506;10.272;2023-08-24T11:11:36;99458.91;;;32.19;44.60
50282;BME280;36176;51.506;10.272;2023-08-24T11:14:17;99451.72;;;32.38;43.19
50282;BME280;36176;51.506;10.272;2023-08-24T11:16:46;99451.00;;;32.70;41.76
50282;BME280;36176;51.506;10.272;2023-08-24T11:19:13;99453.75;;;32.70;40.42
50282;BME280;36176;51.506;10.272;2023-08-24T11:21:42;99452.09;;;32.42;39.87
50282;BME280;36176;51.506;10.272;2023-08-24T11:24:14;99444.31;;;32.39;40.85
50282;BME280;36176;51.506;10.272;2023-08-24T11:26:43;99444.13;;;32.34;42.13
50282;BME280;36176;51.506;10.272;2023-08-24T11:29:10;99450.88;;;32.31;40.12
50282;BME280;36176;51.506;10.272;2023-08-24T11:31:38;99451.75;;;32.18;40.77
50282;BME280;36176;51.506;10.272;2023-08-24T11:34:10;99456.59;;;32.10;41.98
50282;BME280;36176;51.506;10.272;2023-08-24T11:36:48;99459.75;;;32.27;41.25
50282;BME280;36176;51.506;10.272;2023-08-24T11:39:21;99455.78;;;32.09;41.21
50282;BME280;36176;51.506;10.272;2023-08-24T11:44:26;99441.63;;;31.72;43.06
50282;BME280;36176;51.506;10.272;2023-08-24T11:46:57;99435.09;;;31.93;43.80
50282;BME280;36176;51.506;10.272;2023-08-24T11:49:25;99431.25;;;32.34;41.43
50282;BME280;36176;51.506;10.272;2023-08-24T11:51:52;99424.44;;;32.63;39.86
50282;BME280;36176;51.506;10.272;2023-08-24T11:54:21;99427.94;;;32.84;39.85
50282;BME280;36176;51.506;10.272;2023-08-24T11:56:48;99428.38;;;32.88;40.64
50282;BME280;36176;51.506;10.272;2023-08-24T11:59:16;99425.19;;;32.91;41.74
50282;BME280;36176;51.506;10.272;2023-08-24T12:01:45;99418.91;;;33.22;38.13
50282;BME280;36176;51.506;10.272;2023-08-24T12:04:12;99423.41;;;33.41;36.87
50282;BME280;36176;51.506;10.272;2023-08-24T12:06:40;99422.59;;;33.09;35.81
50282;BME280;36176;51.506;10.272;2023-08-24T12:09:07;99417.16;;;32.89;36.73
50282;BME280;36176;51.506;10.272;2023-08-24T12:11:38;99407.59;;;32.53;36.21
50282;BME280;36176;51.506;10.272;2023-08-24T12:14:06;99417.59;;;32.28;36.24
50282;BME280;36176;51.506;10.272;2023-08-24T12:16:33;99400.53;;;31.92;37.54
50282;BME280;36176;51.506;10.272;2023-08-24T12:19:00;99391.50;;;31.92;37.96
50282;BME280;36176;51.506;10.272;2023-08-24T12:21:27;99399.69;;;31.65;38.69
50282;BME280;36176;51.506;10.272;2023-08-24T12:24:05;99380.91;;;31.22;39.91
50282;BME280;36176;51.506;10.272;2023-08-24T12:26:33;99378.00;;;31.37;39.17
50282;BME280;36176;51.506;10.272;2023-08-24T12:29:06;99370.81;;;31.23;37.47
50282;BME280;36176;51.506;10.272;2023-08-24T12:31:34;99371.66;;;31.16;36.65
50282;BME280;36176;51.506;10.272;2023-08-24T12:34:03;99373.63;;;30.81;35.78
50282;BME280;36176;51.506;10.272;2023-08-24T12:36:34;99366.88;;;30.70;36.55
50282;BME280;36176;51.506;10.272;2023-08-24T12:39:01;99365.84;;;30.78;37.71
50282;BME280;36176;51.506;10.272;2023-08-24T12:41:29;99363.19;;;30.91;38.25
50282;BME280;36176;51.506;10.272;2023-08-24T12:43:57;99360.88;;;30.95;38.59
50282;BME280;36176;51.506;10.272;2023-08-24T12:46:24;99356.06;;;31.04;38.56
50282;BME280;36176;51.506;10.272;2023-08-24T12:48:51;99362.81;;;31.21;37.54
50282;BME280;36176;51.506;10.272;2023-08-24T12:51:22;99354.19;;;31.37;37.58
50282;BME280;36176;51.506;10.272;2023-08-24T12:53:50;99349.56;;;31.58;38.83
50282;BME280;36176;51.506;10.272;2023-08-24T12:56:17;99344.28;;;31.70;38.56
50282;BME280;36176;51.506;10.272;2023-08-24T12:58:44;99343.06;;;31.59;37.54
50282;BME280;36176;51.506;10.272;2023-08-24T13:01:11;99329.38;;;31.46;38.06
50282;BME280;36176;51.506;10.272;2023-08-24T13:03:38;99336.09;;;31.30;40.45
50282;BME280;36176;51.506;10.272;2023-08-24T13:06:08;99318.19;;;31.14;38.08
50282;BME280;36176;51.506;10.272;2023-08-24T13:08:52;99313.56;;;31.01;37.53
50282;BME280;36176;51.506;10.272;2023-08-24T13:11:21;99303.88;;;30.99;40.21